createdAt,value
2023-01-30T00:01:07.453Z,17.13
2023-01-30T00:04:09.765Z,17.27
2023-01-30T00:07:11.283Z,16.65
2023-01-30T00:10:12.977Z,19.55
2023-01-30T00:13:15.317Z,17.80
2023-01-30T00:16:18.427Z,17.75
2023-01-30T00:19:19.956Z,16.93
2023-01-30T00:22:21.448Z,16.48
2023-01-30T00:25:23.046Z,18.20
2023-01-30T00:28:25.245Z,18.33
2023-01-30T00:31:26.822Z,21.10
2023-01-30T00:34:28.365Z,18.58
2023-01-30T00:37:29.889Z,17.27
2023-01-30T00:40:32.529Z,16.65
2023-01-30T00:47:38.535Z,18.75
2023-01-30T00:50:42.756Z,15.73
2023-01-30T00:53:46.671Z,16.85
2023-01-30T00:56:48.927Z,19.77
2023-01-30T00:59:50.544Z,22.55
2023-01-30T01:02:52.133Z,16.50
2023-01-30T01:05:53.713Z,20.02
2023-01-30T01:08:55.332Z,18.70
2023-01-30T01:11:56.963Z,17.80
2023-01-30T01:14:58.649Z,18.73
2023-01-30T01:18:00.243Z,18.92
2023-01-30T01:21:01.757Z,19.17
2023-01-30T01:24:03.474Z,19.20
2023-01-30T01:27:04.993Z,17.75
2023-01-30T01:30:08.364Z,19.15
2023-01-30T01:33:11.507Z,19.55
2023-01-30T01:36:20.018Z,19.67
2023-01-30T01:39:51.067Z,17.48
2023-01-30T01:42:52.803Z,17.95
2023-01-30T01:46:10.199Z,20.00
2023-01-30T06:38:21.336Z,18.58
2023-01-30T06:41:22.867Z,18.98
2023-01-30T06:44:24.396Z,21.40
2023-01-30T06:47:25.865Z,19.10
2023-01-30T06:50:28.862Z,19.63
2023-01-30T06:53:30.788Z,19.98
2023-01-30T06:56:32.275Z,24.45
2023-01-30T06:59:33.691Z,21.13
2023-01-30T07:02:35.528Z,18.33
2023-01-30T07:05:39.035Z,22.23
2023-01-30T07:08:41.014Z,21.00
2023-01-30T07:11:42.632Z,20.50
2023-01-30T07:14:44.119Z,19.48
2023-01-30T07:17:45.676Z,20.55
2023-01-30T07:20:48.619Z,22.08
2023-01-30T07:23:50.116Z,19.67
2023-01-30T07:26:51.635Z,19.38
2023-01-30T07:29:53.408Z,20.85
2023-01-30T07:32:57.858Z,19.45
2023-01-30T07:35:59.391Z,19.80
2023-01-30T07:39:01.602Z,16.63
2023-01-30T07:42:04.161Z,17.25
2023-01-30T07:45:06.438Z,18.80
2023-01-30T07:48:10.193Z,18.02
2023-01-30T07:51:11.982Z,21.95
2023-01-30T07:54:13.493Z,24.80
2023-01-30T07:57:14.984Z,23.17
2023-01-30T08:00:17.429Z,51.08
2023-01-30T08:03:19.042Z,21.13
2023-01-30T08:06:20.614Z,23.20
2023-01-30T08:09:22.105Z,21.85
2023-01-30T08:12:23.652Z,19.65
2023-01-30T08:15:25.123Z,19.63
2023-01-30T08:18:28.738Z,20.13
2023-01-30T08:21:30.269Z,20.92
2023-01-30T08:24:31.708Z,22.35
2023-01-30T08:27:33.212Z,21.50
2023-01-30T08:30:34.683Z,25.63
2023-01-30T08:33:36.276Z,26.65
2023-01-30T08:36:37.731Z,22.48
2023-01-30T08:39:39.208Z,26.70
2023-01-30T08:42:40.897Z,24.58
2023-01-30T08:45:42.341Z,23.80
2023-01-30T08:48:50.018Z,22.75
2023-01-30T08:51:51.839Z,23.50
2023-01-30T08:54:53.313Z,29.45
2023-01-30T08:57:56.803Z,20.30
2023-01-30T09:00:58.374Z,18.00
2023-01-30T09:03:59.852Z,23.10
2023-01-30T09:07:01.287Z,18.10
2023-01-30T09:10:03.042Z,21.02
2023-01-30T09:13:05.534Z,16.83
2023-01-30T09:16:07.199Z,19.20
2023-01-30T09:19:08.692Z,18.67
2023-01-30T09:22:10.419Z,18.52
2023-01-30T09:25:12.208Z,16.80
2023-01-30T09:28:13.936Z,17.52
2023-01-30T09:31:15.550Z,15.95
2023-01-30T09:34:17.080Z,15.05
2023-01-30T09:37:18.572Z,15.25
2023-01-30T09:40:32.561Z,15.82
2023-01-30T09:43:41.067Z,16.88
2023-01-30T09:46:54.678Z,15.98
2023-01-30T09:50:20.198Z,15.70
2023-01-30T09:53:55.887Z,14.80
2023-01-30T09:57:21.308Z,13.27
2023-01-30T10:00:37.594Z,15.93
2023-01-30T10:03:59.729Z,14.73
2023-01-30T10:07:10.098Z,14.88
2023-01-30T10:10:39.431Z,14.43
2023-01-30T10:14:10.029Z,13.65
2023-01-30T10:17:41.134Z,15.40
2023-01-30T10:21:06.947Z,20.05
2023-01-30T10:24:23.520Z,16.77
2023-01-30T10:27:26.118Z,20.67
2023-01-30T10:30:27.963Z,23.30
2023-01-30T10:33:36.892Z,25.75
2023-01-30T10:37:08.501Z,16.65
2023-01-30T10:40:33.640Z,15.68
2023-01-30T10:43:42.579Z,15.80
2023-01-30T10:47:11.451Z,16.17
2023-01-30T10:50:24.656Z,14.90
2023-01-30T10:53:42.295Z,13.55
2023-01-30T10:56:57.185Z,18.92
2023-01-30T11:00:35.975Z,14.52
2023-01-30T11:03:44.597Z,17.55
2023-01-30T11:06:46.499Z,17.05
2023-01-30T11:09:49.049Z,17.67
2023-01-30T11:13:14.478Z,14.23
2023-01-30T11:16:16.753Z,14.23
2023-01-30T11:19:22.735Z,23.73
2023-01-30T11:22:28.723Z,20.30
2023-01-30T11:25:30.280Z,18.30
2023-01-30T11:28:40.740Z,14.40
2023-01-30T11:31:42.826Z,11.15
2023-01-30T11:34:44.613Z,11.32
2023-01-30T11:37:46.088Z,21.35
2023-01-30T11:40:47.576Z,17.55
2023-01-30T11:43:49.199Z,8.55
2023-01-30T11:46:50.736Z,8.88
2023-01-30T11:50:16.857Z,6.07
2023-01-30T11:53:46.533Z,14.75
2023-01-30T11:56:53.673Z,9.15
2023-01-30T11:59:58.514Z,5.35
2023-01-30T12:03:05.615Z,7.00
2023-01-30T12:06:07.220Z,6.55
2023-01-30T12:09:38.659Z,7.90
2023-01-30T12:12:49.450Z,6.45
2023-01-30T12:15:57.854Z,6.00
2023-01-30T12:19:12.939Z,7.15
2023-01-30T12:22:36.158Z,11.95
2023-01-30T12:25:56.695Z,6.50
2023-01-30T12:29:03.987Z,5.85
2023-01-30T12:32:11.270Z,6.05
2023-01-30T12:35:26.794Z,4.88
2023-01-30T12:38:49.877Z,5.38
2023-01-30T12:42:26.090Z,5.72
2023-01-30T12:45:40.411Z,8.95
2023-01-30T12:49:11.497Z,7.47
2023-01-30T12:52:31.985Z,6.03
2023-01-30T12:55:57.221Z,6.57
2023-01-30T12:59:10.833Z,6.75
2023-01-30T13:02:30.779Z,4.97
2023-01-30T13:05:41.103Z,6.20
2023-01-30T13:09:02.738Z,5.68
2023-01-30T13:12:17.082Z,8.70
2023-01-30T13:15:47.887Z,4.80
2023-01-30T13:18:57.196Z,6.13
2023-01-30T13:22:03.383Z,6.20
2023-01-30T13:25:36.575Z,6.07
2023-01-30T13:28:47.450Z,6.70
2023-01-30T13:31:54.853Z,6.00
2023-01-30T13:34:59.376Z,7.35
2023-01-30T13:38:03.186Z,7.13
2023-01-30T13:41:05.841Z,8.15
2023-01-30T13:44:19.123Z,6.85
2023-01-30T13:47:32.707Z,6.00
2023-01-30T13:50:50.611Z,8.43
2023-01-30T13:54:07.326Z,6.18
2023-01-30T13:57:39.826Z,6.85
2023-01-30T14:00:53.615Z,6.75
2023-01-30T14:03:55.124Z,6.20
2023-01-30T14:07:20.237Z,6.85
2023-01-30T14:10:23.698Z,5.38
2023-01-30T14:13:27.284Z,8.50
2023-01-30T14:16:43.928Z,5.18
2023-01-30T14:19:48.466Z,5.70
2023-01-30T14:22:58.327Z,5.85
2023-01-30T14:26:00.657Z,7.07
2023-01-30T14:29:02.111Z,5.97
2023-01-30T14:32:23.967Z,5.25
2023-01-30T14:35:30.513Z,7.63
2023-01-30T14:38:33.117Z,4.72
2023-01-30T14:41:34.581Z,6.90
2023-01-30T14:44:55.504Z,5.72
2023-01-30T14:48:25.051Z,6.15
2023-01-30T14:51:56.600Z,5.68
2023-01-30T14:54:58.055Z,6.57
2023-01-30T14:58:02.714Z,6.68
2023-01-30T15:01:04.841Z,5.38
2023-01-30T15:04:06.353Z,7.65
2023-01-30T15:07:12.255Z,6.50
2023-01-30T15:10:25.407Z,6.43
2023-01-30T15:13:55.696Z,7.20
2023-01-30T15:17:11.963Z,7.10
2023-01-30T15:20:32.400Z,5.82
2023-01-30T15:24:09.987Z,6.68
2023-01-30T15:27:27.399Z,6.65
2023-01-30T15:30:37.940Z,6.45
2023-01-30T15:33:47.419Z,6.93
2023-01-30T15:36:49.101Z,6.55
2023-01-30T15:39:50.598Z,7.40
2023-01-30T15:43:01.058Z,6.95
2023-01-30T15:46:13.127Z,6.22
2023-01-30T15:49:41.831Z,8.85
2023-01-30T15:52:48.214Z,6.68
2023-01-30T15:55:50.868Z,7.60
2023-01-30T15:58:53.960Z,7.05
2023-01-30T16:02:28.893Z,6.60
2023-01-30T16:05:31.115Z,6.20
2023-01-30T16:08:34.961Z,78.43
2023-01-30T16:11:40.707Z,6.32
2023-01-30T16:14:42.132Z,8.38
2023-01-30T16:17:47.803Z,16.00
2023-01-30T16:21:01.654Z,6.40
2023-01-30T16:27:19.859Z,7.95
2023-01-30T16:30:25.067Z,6.75
2023-01-30T16:33:27.310Z,8.77
2023-01-30T16:36:32.935Z,6.00
2023-01-30T16:39:37.361Z,6.20
2023-01-30T16:42:39.146Z,5.05
2023-01-30T16:45:52.879Z,6.32
2023-01-30T16:49:04.776Z,6.35
2023-01-30T16:52:15.337Z,6.65
2023-01-30T16:55:24.290Z,5.93
2023-01-30T16:58:32.675Z,5.65
2023-01-30T17:01:40.532Z,6.78
2023-01-30T17:04:43.233Z,5.88
2023-01-30T17:07:45.574Z,6.93
2023-01-30T17:10:52.005Z,5.60
2023-01-30T17:14:10.638Z,5.07
2023-01-30T17:17:14.365Z,5.80
2023-01-30T17:20:16.537Z,5.60
2023-01-30T17:23:19.664Z,4.25
2023-01-30T17:26:21.641Z,6.95
2023-01-30T17:29:41.446Z,4.90
2023-01-30T17:32:43.959Z,4.75
2023-01-30T17:35:45.970Z,7.03
2023-01-30T17:38:47.806Z,13.48
2023-01-30T17:41:49.696Z,7.85
2023-01-30T17:44:51.703Z,8.52
2023-01-30T17:47:53.164Z,13.70
2023-01-30T17:50:54.863Z,25.70
2023-01-30T17:53:56.479Z,14.98
2023-01-30T17:57:04.192Z,8.68
2023-01-30T18:00:06.254Z,17.73
2023-01-30T18:03:10.844Z,19.23
2023-01-30T18:06:16.048Z,10.02
2023-01-30T18:09:24.413Z,6.55
2023-01-30T18:12:26.554Z,6.88
2023-01-30T18:15:28.133Z,7.25
2023-01-30T18:18:29.611Z,7.22
2023-01-30T18:21:33.160Z,7.78
2023-01-30T18:24:34.695Z,4.68
2023-01-30T18:27:36.208Z,5.35
2023-01-30T18:30:37.910Z,11.73
2023-01-30T18:33:41.062Z,11.43
2023-01-30T18:36:42.860Z,14.10
2023-01-30T18:39:44.347Z,21.60
2023-01-30T18:42:46.407Z,12.10
2023-01-30T18:45:48.485Z,11.38
2023-01-30T18:48:49.983Z,14.35
2023-01-30T18:51:51.515Z,9.88
2023-01-30T18:54:53.056Z,8.93
2023-01-30T18:57:54.627Z,9.95
2023-01-30T19:00:57.843Z,9.25
2023-01-30T19:04:01.153Z,8.27
2023-01-30T19:07:02.646Z,10.17
2023-01-30T19:10:04.509Z,10.48
2023-01-30T19:13:24.974Z,10.60
2023-01-30T19:16:28.167Z,12.48
2023-01-30T19:19:29.702Z,9.45
2023-01-30T19:22:31.221Z,12.32
2023-01-30T19:25:32.772Z,11.75
2023-01-30T19:28:35.415Z,14.27
2023-01-30T19:31:37.109Z,14.85
2023-01-30T19:34:38.737Z,18.83
2023-01-30T19:37:40.288Z,22.88
2023-01-30T19:40:45.543Z,12.95
2023-01-30T19:43:47.464Z,15.75
2023-01-30T19:46:49.354Z,9.65
2023-01-30T19:49:51.925Z,6.78
2023-01-30T19:52:53.427Z,6.13
2023-01-30T19:55:55.108Z,6.25
2023-01-30T19:58:58.710Z,8.82
2023-01-30T20:02:00.289Z,6.55
2023-01-30T20:05:02.623Z,9.68
2023-01-30T20:08:04.499Z,9.52
2023-01-30T20:11:08.523Z,10.65
2023-01-30T20:14:10.912Z,10.10
2023-01-30T20:17:14.224Z,10.98
2023-01-30T20:20:17.154Z,7.73
2023-01-30T20:23:19.572Z,6.57
2023-01-30T20:26:27.047Z,5.82
2023-01-30T20:29:28.641Z,11.18
2023-01-30T20:32:30.868Z,9.18
2023-01-30T20:35:35.658Z,8.85
2023-01-30T20:38:39.582Z,8.00
2023-01-30T20:41:41.193Z,7.60
2023-01-30T20:44:42.660Z,10.02
2023-01-30T20:47:44.140Z,10.25
2023-01-30T20:50:45.598Z,16.10
2023-01-30T20:53:52.884Z,5.13
2023-01-30T20:56:54.632Z,6.00
2023-01-30T20:59:56.137Z,4.90
2023-01-30T21:02:58.921Z,11.27
2023-01-30T21:06:01.525Z,16.92
2023-01-30T21:09:04.774Z,9.48
2023-01-30T21:12:07.232Z,8.00
2023-01-30T21:15:09.375Z,6.78
2023-01-30T21:18:10.900Z,5.70
2023-01-30T21:21:39.296Z,5.10
2023-01-30T21:24:40.789Z,5.82
2023-01-30T21:27:46.344Z,4.38
2023-01-30T21:30:48.015Z,3.78
2023-01-30T21:33:49.624Z,4.22
2023-01-30T21:37:09.616Z,7.22
2023-01-30T21:40:30.619Z,7.03
2023-01-30T21:43:32.043Z,6.18
2023-01-30T21:46:38.125Z,7.65
2023-01-30T21:49:40.656Z,5.63
2023-01-30T21:52:42.162Z,6.32
2023-01-30T21:55:48.955Z,5.07
2023-01-30T21:58:50.426Z,4.80
2023-01-30T22:01:51.912Z,5.70
2023-01-30T22:04:53.408Z,5.50
2023-01-30T22:07:54.843Z,5.00
2023-01-30T22:11:09.403Z,5.32
2023-01-30T22:14:14.634Z,3.88
2023-01-30T22:17:16.184Z,5.68
2023-01-30T22:20:17.687Z,7.78
2023-01-30T22:23:19.119Z,8.15
2023-01-30T22:26:23.914Z,7.20
2023-01-30T22:29:25.444Z,6.60
2023-01-30T22:32:26.906Z,5.22
2023-01-30T22:35:28.356Z,5.20
2023-01-30T22:38:29.897Z,5.63
2023-01-30T22:41:37.148Z,6.90
2023-01-30T22:44:39.778Z,6.85
2023-01-30T22:47:41.261Z,6.40
2023-01-30T22:50:42.688Z,6.10
2023-01-30T22:53:53.383Z,7.22
2023-01-30T22:56:54.911Z,5.03
2023-01-30T22:59:56.345Z,4.50
2023-01-30T23:02:57.856Z,4.75
2023-01-30T23:06:01.207Z,4.68
2023-01-30T23:09:04.772Z,3.95
2023-01-30T23:12:24.880Z,4.20
2023-01-30T23:15:26.365Z,4.88
2023-01-30T23:18:46.765Z,4.07
2023-01-30T23:21:48.294Z,5.30
2023-01-30T23:24:50.968Z,5.40
2023-01-30T23:27:52.526Z,5.28
2023-01-30T23:30:54.030Z,4.90
2023-01-30T23:33:59.579Z,5.50
2023-01-30T23:37:01.105Z,5.80
2023-01-30T23:40:02.578Z,5.40
2023-01-30T23:43:04.383Z,7.65
2023-01-30T23:46:33.361Z,5.10
2023-01-30T23:49:35.347Z,6.47
2023-01-30T23:52:36.865Z,5.50
2023-01-30T23:55:38.668Z,6.15
2023-01-30T23:58:40.910Z,5.60
